Flight Track Log - Related Links

Times and Time Zones

All times are in EDT time to prevent confusion due to time zone crossing. See the FLG3757 flight status page for this flight to view local times or setup timezone preferences in your user account.


Time Position Orientation Groundspeed Altitude Reporting Facility
EDT Latitude Longitude Course Direction KTS MPH feet Rate Location/Type
Wed 06:14:15 AM 42.1217 -76.0189 289° West 219 252 5,700  Level New York Center
Wed 06:15:15 AM 42.0867 -76.1083 242° Southwest 243 280 8,500 2,400 Climbing New York Center
Wed 06:16:15 AM 42.1064 -76.2217 283° West 254 292 10,500 1,655 Climbing New York Center
Wed 06:17:40 AM 42.1639 -76.3833 296° West 354 407 12,500 1,685 Climbing Cleveland Center
Wed 06:18:00 AM 42.2278 -76.6293 289° West  Level Estimated
Wed 06:18:41 AM 42.2119 -76.5208 295° West 367 422 14,600  Level Cleveland Center
Wed 06:19:42 AM 42.2569 -76.6472 296° West 373 429 16,400 1,537 Climbing Cleveland Center
Wed 06:20:42 AM 42.3022 -76.7750 296° West 377 434 17,700 1,388 Climbing Cleveland Center
Wed 06:21:43 AM 42.3450 -76.9006 295° West 373 429 19,200 1,377 Climbing Cleveland Center
Wed 06:22:44 AM 42.3900 -77.0283 296° West 375 432 20,500 1,180 Climbing Cleveland Center
Wed 06:23:45 AM 42.4339 -77.1578 295° West 378 435 21,600 984 Climbing Cleveland Center
Wed 06:24:46 AM 42.4781 -77.2878 295° West 381 438 22,500 885 Climbing Cleveland Center
Wed 06:25:47 AM 42.5250 -77.4231 295° West 392 451 23,400 836 Climbing Cleveland Center
Wed 06:26:48 AM 42.5767 -77.5756 295° West 398 458 24,200 738 Climbing Cleveland Center
Wed 06:27:49 AM 42.6239 -77.7158 295° West 407 468 24,900 689 Climbing Cleveland Center
Wed 06:28:50 AM 42.6367 -77.8642 277° West 419 482 25,600 639 Climbing Cleveland Center
Wed 06:29:51 AM 42.6428 -78.0186 273° West 415 478 26,200 541 Climbing Cleveland Center
Wed 06:30:52 AM 42.6483 -78.1756 273° West 417 480 26,700 492 Climbing Cleveland Center
Wed 06:31:53 AM 42.6542 -78.3356 273° West 423 487 27,200 590 Climbing Cleveland Center
Wed 06:32:54 AM 42.6606 -78.5286 273° West 426 490 27,900 393 Climbing Cleveland Center
Wed 06:33:55 AM 42.6661 -78.6917 273° West 432 497 28,000 49 Climbing Cleveland Center
Wed 06:34:56 AM 42.6711 -78.8550 272° West 433 498 28,000  Level Cleveland Center
Wed 06:35:57 AM 42.6744 -79.0200 272° West 438 504 28,000  Level Cleveland Center
Wed 06:36:58 AM 42.6783 -79.1850 272° West 439 505 28,000  Level Cleveland Center
Wed 06:37:59 AM 42.6833 -79.3517 272° West 441 507 28,000  Level Cleveland Center
Wed 06:39:01 AM 42.6869 -79.5186 272° West 443 510 28,000  Level Cleveland Center
Wed 06:40:02 AM 42.6897 -79.6853 271° West 443 510 28,000  Level Cleveland Center
Wed 06:41:03 AM 42.6928 -79.8525 271° West 443 510 28,000  Level Cleveland Center
Wed 06:42:04 AM 42.6944 -80.0375 271° West 441 507 28,000  Level Cleveland Center
Wed 06:43:06 AM 42.6975 -80.2061 271° West 443 510 28,000  Level Cleveland Center
Wed 06:44:07 AM 42.7006 -80.3744 271° West 444 511 28,000  Level Cleveland Center
Wed 06:45:08 AM 42.7031 -80.5417 271° West 442 509 28,000  Level Cleveland Center
Wed 06:46:09 AM 42.7047 -80.7111 271° West 445 512 28,000 -488 Level Cleveland Center
Wed 06:47:11 AM 42.7056 -80.8811 270° West 447 514 27,000 -976 Descending Cleveland Center
Wed 06:48:12 AM 42.6881 -81.0436 262° West 435 501 26,000 -1,024 Descending Cleveland Center
Wed 06:49:14 AM 42.6703 -81.2044 262° West 428 493 24,900 -1,024 Descending Cleveland Center
Wed 06:50:15 AM 42.6517 -81.3653 261° West 428 493 23,900 -1,328 Descending Cleveland Center
Wed 06:51:16 AM 42.6314 -81.5456 261° West 416 479 22,200 -1,561 Descending Cleveland Center
Wed 06:52:18 AM 42.6131 -81.6969 261° West 407 468 20,700 -1,415 Descending Cleveland Center
Wed 06:53:19 AM 42.5978 -81.8281 261° West 398 458 19,300 -1,426 Descending Cleveland Center
Wed 06:54:20 AM 42.5806 -81.9728 261° West 390 449 17,800 -1,268 Descending Cleveland Center
Wed 06:55:22 AM 42.5628 -82.1122 260° West 381 438 16,700 -1,375 Descending Cleveland Center
Wed 06:55:56 AM 42.5514 -82.2181 262° West 378 435 15,600 -1,869 Descending Cleveland Center
Wed 06:56:23 AM 42.5417 -82.2789 258° West 376 433 14,800 -1,545 Descending Cleveland Center
Wed 06:57:02 AM 42.5325 -82.3714 262° West 367 422 13,900 -1,452 Descending Cleveland Center
Wed 06:57:25 AM 42.5256 -82.4139 258° West 369 425 13,300 -1,433 Descending Cleveland Center
Wed 06:58:09 AM 42.5142 -82.5161 261° West 359 413 12,300 -1,279 Descending Cleveland Center
Wed 06:58:26 AM 42.5072 -82.5453 252° West 361 415 12,000 -764 Descending Cleveland Center
Wed 06:59:04 AM 42.4789 -82.6306 246° West 346 398 11,600 -984 Descending Cleveland Center
Wed 06:59:27 AM 42.4653 -82.6625 240° Southwest 349 402 11,000 -1,667 Descending Cleveland Center
Wed 06:59:58 AM 42.4447 -82.7278 247° West 303 349 10,100 -1,452 Descending Cleveland Center
Wed 07:00:29 AM 42.4289 -82.7661 241° Southwest 321 369 9,500 -1,309 Descending Cleveland Center
Wed 07:00:53 AM 42.4131 -82.8169 247° West 285 328 8,900 -1,377 Descending Cleveland Center
Wed 07:01:30 AM 42.4047 -82.8639 256° West 284 327 8,100 -1,397 Descending Cleveland Center
Wed 07:02:06 AM 42.3978 -82.9392 263° West 287 330 7,200 -1,452 Descending Cleveland Center
Wed 07:02:32 AM 42.3942 -82.9700 261° West 283 326 6,600 -1,082 Descending Cleveland Center
Wed 07:03:07 AM 42.3875 -83.0508 264° West 286 329 6,100 -590 Descending Cleveland Center
Wed 07:03:33 AM 42.3831 -83.0756 256° West 285 328 6,000 -1,279 Descending Cleveland Center
Wed 07:04:08 AM 42.3631 -83.1519 251° West 280 322 4,800 -1,935 Descending Cleveland Center
Wed 07:04:35 AM 42.3506 -83.1911 247° West 279 321 4,000 -1,909 Descending Cleveland Center
Wed 07:05:14 AM 42.3303 -83.2519 246° West 247 284 2,700 -1,377 Descending Cleveland Center
Wed 07:05:36 AM 42.3147 -83.2664 214° Southwest 244 281 2,600 -393 Descending Cleveland Center
Wed 07:06:15 AM 42.2872 -83.2939 216° Southwest 151 174 2,300 -581 Descending Cleveland Center
Wed 07:06:38 AM 42.2761 -83.2994 200° South 172 198 2,000 -984 Descending Cleveland Center
Wed 07:07:16 AM 42.2561 -83.3178 214° Southwest 129 148 1,300 -885 Descending Cleveland Center
Wed 07:07:39 AM 42.2447 -83.3217 194° South 144 166 1,100 -522 Descending Cleveland Center
Wed 07:09:00 AM 42.2124 -83.3534 246° West  Level Estimated

Login

Don't have an account? Register now (free) for customized features, flight alerts, and more!